sensor_id;sensor_type;location;lat;lon;timestamp;P1;durP1;ratioP1;P2;durP2;ratioP2
15921;SDS011;8060;50.948;3.146;2024-01-30T00:00:45;12.87;;;9.33;;
15921;SDS011;8060;50.948;3.146;2024-01-30T00:03:14;17.00;;;10.60;;
15921;SDS011;8060;50.948;3.146;2024-01-30T00:05:42;14.03;;;9.77;;
15921;SDS011;8060;50.948;3.146;2024-01-30T00:08:10;16.87;;;10.67;;
15921;SDS011;8060;50.948;3.146;2024-01-30T00:10:39;14.33;;;9.53;;
15921;SDS011;8060;50.948;3.146;2024-01-30T00:13:07;13.53;;;9.50;;
15921;SDS011;8060;50.948;3.146;2024-01-30T00:15:35;14.30;;;9.93;;
15921;SDS011;8060;50.948;3.146;2024-01-30T00:18:05;13.50;;;9.90;;
15921;SDS011;8060;50.948;3.146;2024-01-30T00:20:33;13.43;;;9.53;;
15921;SDS011;8060;50.948;3.146;2024-01-30T00:23:02;14.70;;;9.83;;
15921;SDS011;8060;50.948;3.146;2024-01-30T00:25:31;13.97;;;9.13;;
15921;SDS011;8060;50.948;3.146;2024-01-30T00:27:59;13.60;;;9.90;;
15921;SDS011;8060;50.948;3.146;2024-01-30T00:30:28;13.23;;;9.37;;
15921;SDS011;8060;50.948;3.146;2024-01-30T00:32:56;12.73;;;9.57;;
15921;SDS011;8060;50.948;3.146;2024-01-30T00:35:26;16.50;;;10.67;;
15921;SDS011;8060;50.948;3.146;2024-01-30T00:37:55;14.57;;;9.70;;
15921;SDS011;8060;50.948;3.146;2024-01-30T00:40:24;16.77;;;9.83;;
15921;SDS011;8060;50.948;3.146;2024-01-30T00:42:53;15.97;;;9.40;;
15921;SDS011;8060;50.948;3.146;2024-01-30T00:45:21;12.70;;;9.43;;
15921;SDS011;8060;50.948;3.146;2024-01-30T00:47:50;15.97;;;9.10;;
15921;SDS011;8060;50.948;3.146;2024-01-30T00:50:18;16.23;;;10.10;;
15921;SDS011;8060;50.948;3.146;2024-01-30T00:52:48;15.47;;;10.00;;
15921;SDS011;8060;50.948;3.146;2024-01-30T00:55:16;16.87;;;10.27;;
15921;SDS011;8060;50.948;3.146;2024-01-30T00:57:45;17.60;;;9.70;;
15921;SDS011;8060;50.948;3.146;2024-01-30T01:00:13;12.13;;;9.50;;
15921;SDS011;8060;50.948;3.146;2024-01-30T01:02:43;16.00;;;10.00;;
15921;SDS011;8060;50.948;3.146;2024-01-30T01:05:12;15.23;;;9.90;;
15921;SDS011;8060;50.948;3.146;2024-01-30T01:07:40;20.40;;;9.43;;
15921;SDS011;8060;50.948;3.146;2024-01-30T01:10:10;13.97;;;10.03;;
15921;SDS011;8060;50.948;3.146;2024-01-30T01:12:40;21.60;;;10.00;;
15921;SDS011;8060;50.948;3.146;2024-01-30T01:15:08;15.30;;;10.30;;
15921;SDS011;8060;50.948;3.146;2024-01-30T01:17:37;13.30;;;10.00;;
15921;SDS011;8060;50.948;3.146;2024-01-30T01:20:06;14.13;;;10.07;;
15921;SDS011;8060;50.948;3.146;2024-01-30T01:22:37;15.70;;;10.33;;
15921;SDS011;8060;50.948;3.146;2024-01-30T01:25:06;15.50;;;10.30;;
15921;SDS011;8060;50.948;3.146;2024-01-30T01:27:36;14.77;;;9.47;;
15921;SDS011;8060;50.948;3.146;2024-01-30T01:30:08;15.90;;;10.00;;
15921;SDS011;8060;50.948;3.146;2024-01-30T01:32:38;14.17;;;9.13;;
15921;SDS011;8060;50.948;3.146;2024-01-30T01:35:11;16.73;;;10.17;;
15921;SDS011;8060;50.948;3.146;2024-01-30T01:37:40;14.63;;;10.13;;
15921;SDS011;8060;50.948;3.146;2024-01-30T01:40:08;16.30;;;10.13;;
15921;SDS011;8060;50.948;3.146;2024-01-30T01:42:38;14.27;;;10.00;;
15921;SDS011;8060;50.948;3.146;2024-01-30T01:45:07;12.53;;;9.53;;
15921;SDS011;8060;50.948;3.146;2024-01-30T01:47:36;13.83;;;9.77;;
15921;SDS011;8060;50.948;3.146;2024-01-30T01:50:04;13.00;;;9.63;;
15921;SDS011;8060;50.948;3.146;2024-01-30T01:52:33;15.27;;;10.27;;
15921;SDS011;8060;50.948;3.146;2024-01-30T01:55:01;13.20;;;9.63;;
15921;SDS011;8060;50.948;3.146;2024-01-30T01:57:30;14.97;;;9.87;;
15921;SDS011;8060;50.948;3.146;2024-01-30T02:00:00;17.50;;;10.70;;
15921;SDS011;8060;50.948;3.146;2024-01-30T02:02:30;13.93;;;10.30;;
15921;SDS011;8060;50.948;3.146;2024-01-30T02:05:03;14.90;;;10.40;;
15921;SDS011;8060;50.948;3.146;2024-01-30T02:07:32;14.57;;;10.60;;
15921;SDS011;8060;50.948;3.146;2024-01-30T02:10:01;14.70;;;10.43;;
15921;SDS011;8060;50.948;3.146;2024-01-30T02:12:30;16.73;;;10.47;;
15921;SDS011;8060;50.948;3.146;2024-01-30T02:14:59;12.47;;;9.83;;
15921;SDS011;8060;50.948;3.146;2024-01-30T02:17:27;14.60;;;11.00;;
15921;SDS011;8060;50.948;3.146;2024-01-30T02:19:56;14.17;;;10.43;;
15921;SDS011;8060;50.948;3.146;2024-01-30T02:22:25;15.40;;;9.83;;
15921;SDS011;8060;50.948;3.146;2024-01-30T02:24:53;17.70;;;11.07;;
15921;SDS011;8060;50.948;3.146;2024-01-30T02:27:21;21.27;;;11.10;;
15921;SDS011;8060;50.948;3.146;2024-01-30T02:29:49;15.17;;;11.10;;
15921;SDS011;8060;50.948;3.146;2024-01-30T02:32:17;14.33;;;10.47;;
15921;SDS011;8060;50.948;3.146;2024-01-30T02:34:46;13.40;;;10.17;;
15921;SDS011;8060;50.948;3.146;2024-01-30T02:37:14;16.33;;;10.90;;
15921;SDS011;8060;50.948;3.146;2024-01-30T02:39:43;17.17;;;10.53;;
15921;SDS011;8060;50.948;3.146;2024-01-30T02:42:11;15.67;;;10.53;;
15921;SDS011;8060;50.948;3.146;2024-01-30T02:44:39;14.60;;;9.93;;
15921;SDS011;8060;50.948;3.146;2024-01-30T02:47:07;16.13;;;11.00;;
15921;SDS011;8060;50.948;3.146;2024-01-30T02:49:36;15.13;;;10.73;;
15921;SDS011;8060;50.948;3.146;2024-01-30T02:52:04;14.23;;;10.57;;
15921;SDS011;8060;50.948;3.146;2024-01-30T02:54:34;15.87;;;10.37;;
15921;SDS011;8060;50.948;3.146;2024-01-30T02:57:03;13.20;;;9.60;;
15921;SDS011;8060;50.948;3.146;2024-01-30T02:59:32;15.40;;;10.50;;
15921;SDS011;8060;50.948;3.146;2024-01-30T03:02:02;13.77;;;10.10;;
15921;SDS011;8060;50.948;3.146;2024-01-30T03:04:30;16.67;;;10.40;;
15921;SDS011;8060;50.948;3.146;2024-01-30T03:06:58;15.97;;;10.17;;
15921;SDS011;8060;50.948;3.146;2024-01-30T03:09:27;14.67;;;10.20;;
15921;SDS011;8060;50.948;3.146;2024-01-30T03:11:55;14.40;;;10.10;;
15921;SDS011;8060;50.948;3.146;2024-01-30T03:14:24;17.10;;;10.73;;
15921;SDS011;8060;50.948;3.146;2024-01-30T03:16:52;15.83;;;10.10;;
15921;SDS011;8060;50.948;3.146;2024-01-30T03:19:20;17.60;;;10.63;;
15921;SDS011;8060;50.948;3.146;2024-01-30T03:21:48;13.87;;;9.50;;
15921;SDS011;8060;50.948;3.146;2024-01-30T03:24:17;14.87;;;10.17;;
15921;SDS011;8060;50.948;3.146;2024-01-30T03:26:45;15.00;;;10.00;;
15921;SDS011;8060;50.948;3.146;2024-01-30T03:29:13;19.40;;;10.67;;
15921;SDS011;8060;50.948;3.146;2024-01-30T03:31:43;14.87;;;10.50;;
15921;SDS011;8060;50.948;3.146;2024-01-30T03:34:11;14.10;;;10.23;;
15921;SDS011;8060;50.948;3.146;2024-01-30T03:36:39;14.40;;;10.03;;
15921;SDS011;8060;50.948;3.146;2024-01-30T03:39:07;15.87;;;10.27;;
15921;SDS011;8060;50.948;3.146;2024-01-30T03:41:35;15.93;;;10.63;;
15921;SDS011;8060;50.948;3.146;2024-01-30T03:44:03;16.20;;;10.43;;
15921;SDS011;8060;50.948;3.146;2024-01-30T03:46:32;14.43;;;10.60;;
15921;SDS011;8060;50.948;3.146;2024-01-30T03:49:01;15.47;;;10.07;;
15921;SDS011;8060;50.948;3.146;2024-01-30T03:51:29;15.80;;;10.40;;
15921;SDS011;8060;50.948;3.146;2024-01-30T03:53:58;14.27;;;10.07;;
15921;SDS011;8060;50.948;3.146;2024-01-30T03:56:26;12.60;;;9.20;;
15921;SDS011;8060;50.948;3.146;2024-01-30T03:58:54;16.50;;;10.27;;
15921;SDS011;8060;50.948;3.146;2024-01-30T04:01:23;16.07;;;10.43;;
15921;SDS011;8060;50.948;3.146;2024-01-30T04:03:51;17.93;;;11.10;;
15921;SDS011;8060;50.948;3.146;2024-01-30T04:06:21;14.07;;;10.10;;
15921;SDS011;8060;50.948;3.146;2024-01-30T04:08:49;15.70;;;10.73;;
15921;SDS011;8060;50.948;3.146;2024-01-30T04:11:18;19.43;;;11.00;;
15921;SDS011;8060;50.948;3.146;2024-01-30T04:13:46;18.30;;;10.63;;
15921;SDS011;8060;50.948;3.146;2024-01-30T04:16:19;13.33;;;10.40;;
15921;SDS011;8060;50.948;3.146;2024-01-30T04:18:48;13.10;;;10.63;;
15921;SDS011;8060;50.948;3.146;2024-01-30T04:21:17;14.70;;;10.40;;
15921;SDS011;8060;50.948;3.146;2024-01-30T04:23:46;14.20;;;9.83;;
15921;SDS011;8060;50.948;3.146;2024-01-30T04:26:14;13.93;;;9.87;;
15921;SDS011;8060;50.948;3.146;2024-01-30T04:28:43;19.73;;;11.30;;
15921;SDS011;8060;50.948;3.146;2024-01-30T04:31:12;13.77;;;9.67;;
15921;SDS011;8060;50.948;3.146;2024-01-30T04:33:40;15.57;;;10.20;;
15921;SDS011;8060;50.948;3.146;2024-01-30T04:36:08;16.73;;;10.90;;
15921;SDS011;8060;50.948;3.146;2024-01-30T04:38:37;14.87;;;10.27;;
15921;SDS011;8060;50.948;3.146;2024-01-30T04:41:07;20.03;;;11.50;;
15921;SDS011;8060;50.948;3.146;2024-01-30T04:43:35;14.77;;;10.40;;
15921;SDS011;8060;50.948;3.146;2024-01-30T04:46:03;16.67;;;10.90;;
15921;SDS011;8060;50.948;3.146;2024-01-30T04:48:32;19.33;;;11.20;;
15921;SDS011;8060;50.948;3.146;2024-01-30T04:51:00;16.80;;;10.80;;
15921;SDS011;8060;50.948;3.146;2024-01-30T04:53:30;15.50;;;10.43;;
15921;SDS011;8060;50.948;3.146;2024-01-30T04:55:58;17.90;;;11.27;;
15921;SDS011;8060;50.948;3.146;2024-01-30T04:58:28;19.93;;;10.60;;
15921;SDS011;8060;50.948;3.146;2024-01-30T05:00:56;18.77;;;11.50;;
15921;SDS011;8060;50.948;3.146;2024-01-30T05:03:24;17.70;;;10.80;;
15921;SDS011;8060;50.948;3.146;2024-01-30T05:05:53;17.23;;;10.57;;
15921;SDS011;8060;50.948;3.146;2024-01-30T05:08:21;14.70;;;10.43;;
15921;SDS011;8060;50.948;3.146;2024-01-30T05:10:49;17.03;;;10.43;;
15921;SDS011;8060;50.948;3.146;2024-01-30T05:13:17;18.10;;;10.70;;
15921;SDS011;8060;50.948;3.146;2024-01-30T05:15:47;16.57;;;11.40;;
15921;SDS011;8060;50.948;3.146;2024-01-30T05:18:15;17.70;;;11.40;;
15921;SDS011;8060;50.948;3.146;2024-01-30T05:20:44;17.70;;;10.83;;
15921;SDS011;8060;50.948;3.146;2024-01-30T05:23:12;19.20;;;11.30;;
15921;SDS011;8060;50.948;3.146;2024-01-30T05:25:40;17.17;;;10.83;;
15921;SDS011;8060;50.948;3.146;2024-01-30T05:28:08;15.23;;;10.60;;
15921;SDS011;8060;50.948;3.146;2024-01-30T05:30:36;19.90;;;11.63;;
15921;SDS011;8060;50.948;3.146;2024-01-30T05:33:06;18.70;;;11.60;;
15921;SDS011;8060;50.948;3.146;2024-01-30T05:35:34;15.57;;;11.10;;
15921;SDS011;8060;50.948;3.146;2024-01-30T05:38:02;19.17;;;12.30;;
15921;SDS011;8060;50.948;3.146;2024-01-30T05:40:30;15.37;;;11.20;;
15921;SDS011;8060;50.948;3.146;2024-01-30T05:42:58;15.10;;;10.37;;
15921;SDS011;8060;50.948;3.146;2024-01-30T05:45:29;18.97;;;11.70;;
15921;SDS011;8060;50.948;3.146;2024-01-30T05:47:57;17.97;;;10.97;;
15921;SDS011;8060;50.948;3.146;2024-01-30T05:50:26;19.03;;;11.07;;
15921;SDS011;8060;50.948;3.146;2024-01-30T05:52:55;14.77;;;10.47;;
15921;SDS011;8060;50.948;3.146;2024-01-30T05:55:23;18.43;;;11.20;;
15921;SDS011;8060;50.948;3.146;2024-01-30T05:57:51;18.27;;;11.40;;
15921;SDS011;8060;50.948;3.146;2024-01-30T06:00:19;19.53;;;11.00;;
15921;SDS011;8060;50.948;3.146;2024-01-30T06:02:48;16.23;;;10.83;;
15921;SDS011;8060;50.948;3.146;2024-01-30T06:05:16;18.83;;;11.07;;
15921;SDS011;8060;50.948;3.146;2024-01-30T06:07:45;16.53;;;10.40;;
15921;SDS011;8060;50.948;3.146;2024-01-30T06:10:14;19.00;;;10.70;;
15921;SDS011;8060;50.948;3.146;2024-01-30T06:12:42;18.20;;;10.87;;
15921;SDS011;8060;50.948;3.146;2024-01-30T06:15:10;19.90;;;10.93;;
15921;SDS011;8060;50.948;3.146;2024-01-30T06:17:39;13.83;;;10.30;;
15921;SDS011;8060;50.948;3.146;2024-01-30T06:20:07;15.20;;;10.50;;
15921;SDS011;8060;50.948;3.146;2024-01-30T06:22:35;16.70;;;11.73;;
15921;SDS011;8060;50.948;3.146;2024-01-30T06:25:05;16.83;;;11.03;;
15921;SDS011;8060;50.948;3.146;2024-01-30T06:27:34;23.47;;;11.43;;
15921;SDS011;8060;50.948;3.146;2024-01-30T06:30:02;21.30;;;11.57;;
15921;SDS011;8060;50.948;3.146;2024-01-30T06:32:30;16.50;;;11.23;;
15921;SDS011;8060;50.948;3.146;2024-01-30T06:35:00;17.83;;;11.00;;
15921;SDS011;8060;50.948;3.146;2024-01-30T06:37:29;16.90;;;10.90;;
15921;SDS011;8060;50.948;3.146;2024-01-30T06:39:57;16.97;;;10.93;;
15921;SDS011;8060;50.948;3.146;2024-01-30T06:42:27;19.37;;;10.93;;
15921;SDS011;8060;50.948;3.146;2024-01-30T06:44:55;21.20;;;10.57;;
15921;SDS011;8060;50.948;3.146;2024-01-30T06:47:23;20.27;;;11.13;;
15921;SDS011;8060;50.948;3.146;2024-01-30T06:49:52;16.70;;;11.13;;
15921;SDS011;8060;50.948;3.146;2024-01-30T06:52:20;18.43;;;10.90;;
15921;SDS011;8060;50.948;3.146;2024-01-30T06:54:48;17.23;;;11.17;;
15921;SDS011;8060;50.948;3.146;2024-01-30T06:57:16;18.23;;;10.97;;
15921;SDS011;8060;50.948;3.146;2024-01-30T06:59:46;19.60;;;11.20;;
15921;SDS011;8060;50.948;3.146;2024-01-30T07:02:14;17.70;;;11.00;;
15921;SDS011;8060;50.948;3.146;2024-01-30T07:04:42;19.17;;;10.93;;
15921;SDS011;8060;50.948;3.146;2024-01-30T07:07:13;23.30;;;10.63;;
15921;SDS011;8060;50.948;3.146;2024-01-30T07:09:42;18.67;;;10.93;;
15921;SDS011;8060;50.948;3.146;2024-01-30T07:12:10;17.60;;;10.50;;
15921;SDS011;8060;50.948;3.146;2024-01-30T07:14:38;16.53;;;10.70;;
15921;SDS011;8060;50.948;3.146;2024-01-30T07:17:08;21.47;;;10.73;;
15921;SDS011;8060;50.948;3.146;2024-01-30T07:19:36;21.33;;;11.00;;
15921;SDS011;8060;50.948;3.146;2024-01-30T07:22:04;20.47;;;10.77;;
15921;SDS011;8060;50.948;3.146;2024-01-30T07:24:33;18.37;;;10.47;;
15921;SDS011;8060;50.948;3.146;2024-01-30T07:27:01;16.63;;;10.53;;
15921;SDS011;8060;50.948;3.146;2024-01-30T07:29:29;18.27;;;10.83;;
15921;SDS011;8060;50.948;3.146;2024-01-30T07:31:57;17.23;;;11.17;;
15921;SDS011;8060;50.948;3.146;2024-01-30T07:34:27;18.47;;;11.40;;
15921;SDS011;8060;50.948;3.146;2024-01-30T07:36:55;21.37;;;11.13;;
15921;SDS011;8060;50.948;3.146;2024-01-30T07:39:23;22.47;;;11.97;;
15921;SDS011;8060;50.948;3.146;2024-01-30T07:41:51;22.50;;;11.00;;
15921;SDS011;8060;50.948;3.146;2024-01-30T07:44:19;16.17;;;9.80;;
15921;SDS011;8060;50.948;3.146;2024-01-30T07:46:48;21.73;;;10.30;;
15921;SDS011;8060;50.948;3.146;2024-01-30T07:49:16;22.27;;;10.73;;
15921;SDS011;8060;50.948;3.146;2024-01-30T07:51:45;15.50;;;9.67;;
15921;SDS011;8060;50.948;3.146;2024-01-30T07:54:13;24.47;;;10.90;;
15921;SDS011;8060;50.948;3.146;2024-01-30T07:56:41;17.90;;;10.60;;
15921;SDS011;8060;50.948;3.146;2024-01-30T07:59:10;18.00;;;9.90;;
15921;SDS011;8060;50.948;3.146;2024-01-30T08:01:38;19.13;;;9.90;;
15921;SDS011;8060;50.948;3.146;2024-01-30T08:04:06;18.73;;;9.33;;
15921;SDS011;8060;50.948;3.146;2024-01-30T08:06:35;16.23;;;8.37;;
15921;SDS011;8060;50.948;3.146;2024-01-30T08:09:07;16.23;;;7.73;;
15921;SDS011;8060;50.948;3.146;2024-01-30T08:11:35;14.27;;;5.80;;
15921;SDS011;8060;50.948;3.146;2024-01-30T08:14:04;13.37;;;5.67;;
15921;SDS011;8060;50.948;3.146;2024-01-30T08:16:32;17.87;;;5.57;;
15921;SDS011;8060;50.948;3.146;2024-01-30T08:19:00;14.63;;;4.33;;
15921;SDS011;8060;50.948;3.146;2024-01-30T08:21:29;13.97;;;4.40;;
15921;SDS011;8060;50.948;3.146;2024-01-30T08:24:07;13.77;;;3.60;;
15921;SDS011;8060;50.948;3.146;2024-01-30T08:26:35;9.27;;;3.70;;
15921;SDS011;8060;50.948;3.146;2024-01-30T08:29:03;8.53;;;3.20;;
15921;SDS011;8060;50.948;3.146;2024-01-30T08:31:32;11.40;;;2.83;;
15921;SDS011;8060;50.948;3.146;2024-01-30T08:34:00;14.43;;;3.97;;
15921;SDS011;8060;50.948;3.146;2024-01-30T08:36:28;7.30;;;2.23;;
15921;SDS011;8060;50.948;3.146;2024-01-30T08:38:57;7.93;;;2.80;;
15921;SDS011;8060;50.948;3.146;2024-01-30T08:41:31;10.43;;;2.80;;
15921;SDS011;8060;50.948;3.146;2024-01-30T08:44:00;8.37;;;2.27;;
15921;SDS011;8060;50.948;3.146;2024-01-30T08:46:28;10.20;;;2.67;;
15921;SDS011;8060;50.948;3.146;2024-01-30T08:48:57;7.77;;;2.50;;
15921;SDS011;8060;50.948;3.146;2024-01-30T08:51:25;7.87;;;2.50;;
15921;SDS011;8060;50.948;3.146;2024-01-30T08:53:53;7.43;;;2.63;;
15921;SDS011;8060;50.948;3.146;2024-01-30T08:56:21;8.37;;;2.33;;
15921;SDS011;8060;50.948;3.146;2024-01-30T08:58:51;12.47;;;2.77;;
15921;SDS011;8060;50.948;3.146;2024-01-30T09:01:19;9.03;;;2.03;;
15921;SDS011;8060;50.948;3.146;2024-01-30T09:03:47;7.67;;;1.70;;
15921;SDS011;8060;50.948;3.146;2024-01-30T09:06:16;5.67;;;1.40;;
15921;SDS011;8060;50.948;3.146;2024-01-30T09:08:44;11.93;;;1.37;;
15921;SDS011;8060;50.948;3.146;2024-01-30T09:11:12;5.73;;;2.07;;
15921;SDS011;8060;50.948;3.146;2024-01-30T09:13:41;9.07;;;1.37;;
15921;SDS011;8060;50.948;3.146;2024-01-30T09:16:11;6.43;;;1.37;;
15921;SDS011;8060;50.948;3.146;2024-01-30T09:18:40;5.57;;;1.50;;
15921;SDS011;8060;50.948;3.146;2024-01-30T09:21:08;3.90;;;1.20;;
15921;SDS011;8060;50.948;3.146;2024-01-30T09:23:39;4.57;;;1.43;;
15921;SDS011;8060;50.948;3.146;2024-01-30T09:26:07;8.13;;;1.53;;
15921;SDS011;8060;50.948;3.146;2024-01-30T09:28:35;6.20;;;1.27;;
15921;SDS011;8060;50.948;3.146;2024-01-30T09:31:03;4.03;;;1.50;;
15921;SDS011;8060;50.948;3.146;2024-01-30T09:33:38;11.30;;;1.77;;
15921;SDS011;8060;50.948;3.146;2024-01-30T09:36:06;7.10;;;1.43;;
15921;SDS011;8060;50.948;3.146;2024-01-30T09:38:34;4.97;;;1.20;;
15921;SDS011;8060;50.948;3.146;2024-01-30T09:41:03;3.63;;;1.23;;
15921;SDS011;8060;50.948;3.146;2024-01-30T09:43:37;7.63;;;1.60;;
15921;SDS011;8060;50.948;3.146;2024-01-30T09:46:06;6.17;;;1.67;;
15921;SDS011;8060;50.948;3.146;2024-01-30T09:48:40;8.30;;;1.70;;
15921;SDS011;8060;50.948;3.146;2024-01-30T09:51:09;6.53;;;1.20;;
15921;SDS011;8060;50.948;3.146;2024-01-30T09:53:38;5.83;;;2.13;;
15921;SDS011;8060;50.948;3.146;2024-01-30T09:56:07;5.73;;;1.40;;
15921;SDS011;8060;50.948;3.146;2024-01-30T09:58:35;8.50;;;2.13;;
15921;SDS011;8060;50.948;3.146;2024-01-30T10:01:04;6.93;;;1.40;;
15921;SDS011;8060;50.948;3.146;2024-01-30T10:03:32;7.10;;;1.80;;
15921;SDS011;8060;50.948;3.146;2024-01-30T10:06:02;7.07;;;1.50;;
15921;SDS011;8060;50.948;3.146;2024-01-30T10:08:30;4.40;;;2.00;;
15921;SDS011;8060;50.948;3.146;2024-01-30T10:10:59;7.57;;;1.77;;
15921;SDS011;8060;50.948;3.146;2024-01-30T10:13:28;6.67;;;1.87;;
15921;SDS011;8060;50.948;3.146;2024-01-30T10:15:56;7.87;;;1.80;;
15921;SDS011;8060;50.948;3.146;2024-01-30T10:18:24;8.43;;;1.77;;
15921;SDS011;8060;50.948;3.146;2024-01-30T10:20:52;5.67;;;1.53;;
15921;SDS011;8060;50.948;3.146;2024-01-30T10:23:23;9.30;;;1.50;;
15921;SDS011;8060;50.948;3.146;2024-01-30T10:25:52;5.70;;;1.30;;
15921;SDS011;8060;50.948;3.146;2024-01-30T10:28:20;8.13;;;1.40;;
15921;SDS011;8060;50.948;3.146;2024-01-30T10:30:56;7.23;;;1.50;;
15921;SDS011;8060;50.948;3.146;2024-01-30T10:33:31;12.40;;;1.80;;
15921;SDS011;8060;50.948;3.146;2024-01-30T10:36:00;8.87;;;1.30;;
15921;SDS011;8060;50.948;3.146;2024-01-30T10:38:32;7.97;;;1.67;;
15921;SDS011;8060;50.948;3.146;2024-01-30T10:41:01;9.23;;;1.97;;
15921;SDS011;8060;50.948;3.146;2024-01-30T10:43:30;9.63;;;1.97;;
15921;SDS011;8060;50.948;3.146;2024-01-30T10:46:03;10.40;;;2.07;;
15921;SDS011;8060;50.948;3.146;2024-01-30T10:48:42;8.40;;;1.40;;
15921;SDS011;8060;50.948;3.146;2024-01-30T10:51:11;8.27;;;1.47;;
15921;SDS011;8060;50.948;3.146;2024-01-30T10:53:43;9.53;;;1.80;;
15921;SDS011;8060;50.948;3.146;2024-01-30T10:56:14;6.60;;;1.30;;
15921;SDS011;8060;50.948;3.146;2024-01-30T10:58:44;6.63;;;1.53;;
15921;SDS011;8060;50.948;3.146;2024-01-30T11:01:12;8.67;;;1.67;;
15921;SDS011;8060;50.948;3.146;2024-01-30T11:03:41;10.60;;;1.40;;
15921;SDS011;8060;50.948;3.146;2024-01-30T11:06:10;5.23;;;1.83;;
15921;SDS011;8060;50.948;3.146;2024-01-30T11:08:40;6.37;;;1.30;;
15921;SDS011;8060;50.948;3.146;2024-01-30T11:11:09;12.77;;;1.67;;
15921;SDS011;8060;50.948;3.146;2024-01-30T11:13:41;7.90;;;1.63;;
15921;SDS011;8060;50.948;3.146;2024-01-30T11:16:09;6.30;;;0.97;;
15921;SDS011;8060;50.948;3.146;2024-01-30T11:18:40;6.70;;;1.40;;
15921;SDS011;8060;50.948;3.146;2024-01-30T11:21:08;2.80;;;0.90;;
15921;SDS011;8060;50.948;3.146;2024-01-30T11:23:36;5.57;;;1.10;;
15921;SDS011;8060;50.948;3.146;2024-01-30T11:26:05;5.10;;;0.90;;
15921;SDS011;8060;50.948;3.146;2024-01-30T11:28:35;5.30;;;1.07;;
15921;SDS011;8060;50.948;3.146;2024-01-30T11:31:06;8.10;;;1.33;;
15921;SDS011;8060;50.948;3.146;2024-01-30T11:33:34;4.63;;;1.27;;
15921;SDS011;8060;50.948;3.146;2024-01-30T11:36:03;3.50;;;1.13;;
15921;SDS011;8060;50.948;3.146;2024-01-30T11:38:33;6.80;;;1.20;;
15921;SDS011;8060;50.948;3.146;2024-01-30T11:41:02;6.07;;;1.30;;
15921;SDS011;8060;50.948;3.146;2024-01-30T11:43:31;7.10;;;1.30;;
15921;SDS011;8060;50.948;3.146;2024-01-30T11:46:03;6.20;;;0.80;;
15921;SDS011;8060;50.948;3.146;2024-01-30T11:48:33;6.53;;;1.20;;
15921;SDS011;8060;50.948;3.146;2024-01-30T11:51:01;2.90;;;0.90;;
15921;SDS011;8060;50.948;3.146;2024-01-30T11:53:30;5.00;;;1.10;;
15921;SDS011;8060;50.948;3.146;2024-01-30T11:55:58;5.37;;;1.17;;
15921;SDS011;8060;50.948;3.146;2024-01-30T11:58:26;3.87;;;0.90;;
15921;SDS011;8060;50.948;3.146;2024-01-30T12:00:54;7.43;;;1.07;;
15921;SDS011;8060;50.948;3.146;2024-01-30T12:03:24;3.47;;;1.10;;
15921;SDS011;8060;50.948;3.146;2024-01-30T12:05:56;4.23;;;1.03;;
15921;SDS011;8060;50.948;3.146;2024-01-30T12:08:26;9.13;;;1.67;;
15921;SDS011;8060;50.948;3.146;2024-01-30T12:10:57;6.67;;;1.37;;
15921;SDS011;8060;50.948;3.146;2024-01-30T12:13:27;8.33;;;1.43;;
15921;SDS011;8060;50.948;3.146;2024-01-30T12:15:59;6.57;;;1.00;;
15921;SDS011;8060;50.948;3.146;2024-01-30T12:18:29;7.60;;;1.43;;
15921;SDS011;8060;50.948;3.146;2024-01-30T12:21:01;7.97;;;1.77;;
15921;SDS011;8060;50.948;3.146;2024-01-30T12:23:29;7.30;;;1.40;;
15921;SDS011;8060;50.948;3.146;2024-01-30T12:25:57;4.57;;;1.20;;
15921;SDS011;8060;50.948;3.146;2024-01-30T12:28:25;4.70;;;1.17;;
15921;SDS011;8060;50.948;3.146;2024-01-30T12:30:55;8.07;;;1.27;;
15921;SDS011;8060;50.948;3.146;2024-01-30T12:33:26;9.37;;;1.40;;
15921;SDS011;8060;50.948;3.146;2024-01-30T12:35:55;7.07;;;1.40;;
15921;SDS011;8060;50.948;3.146;2024-01-30T12:38:29;6.50;;;1.13;;
15921;SDS011;8060;50.948;3.146;2024-01-30T12:40:57;5.17;;;1.10;;
15921;SDS011;8060;50.948;3.146;2024-01-30T12:43:25;6.53;;;1.70;;
15921;SDS011;8060;50.948;3.146;2024-01-30T12:46:04;8.47;;;1.90;;
15921;SDS011;8060;50.948;3.146;2024-01-30T12:48:33;5.23;;;1.47;;
15921;SDS011;8060;50.948;3.146;2024-01-30T12:51:03;4.87;;;1.20;;
15921;SDS011;8060;50.948;3.146;2024-01-30T12:53:31;5.67;;;1.60;;
15921;SDS011;8060;50.948;3.146;2024-01-30T12:56:00;6.93;;;1.50;;
15921;SDS011;8060;50.948;3.146;2024-01-30T12:58:28;4.80;;;1.10;;
15921;SDS011;8060;50.948;3.146;2024-01-30T13:00:56;4.83;;;1.50;;
15921;SDS011;8060;50.948;3.146;2024-01-30T13:03:25;6.70;;;1.37;;
15921;SDS011;8060;50.948;3.146;2024-01-30T13:05:53;7.97;;;1.77;;
15921;SDS011;8060;50.948;3.146;2024-01-30T13:08:23;8.27;;;1.23;;
15921;SDS011;8060;50.948;3.146;2024-01-30T13:10:51;5.50;;;1.77;;
15921;SDS011;8060;50.948;3.146;2024-01-30T13:13:19;8.70;;;1.50;;
15921;SDS011;8060;50.948;3.146;2024-01-30T13:15:47;4.73;;;1.50;;
15921;SDS011;8060;50.948;3.146;2024-01-30T13:18:15;4.60;;;1.37;;
15921;SDS011;8060;50.948;3.146;2024-01-30T13:20:44;9.97;;;1.47;;
15921;SDS011;8060;50.948;3.146;2024-01-30T13:23:12;6.93;;;1.77;;
15921;SDS011;8060;50.948;3.146;2024-01-30T13:25:41;7.00;;;2.07;;
15921;SDS011;8060;50.948;3.146;2024-01-30T13:28:09;9.37;;;2.40;;
15921;SDS011;8060;50.948;3.146;2024-01-30T13:30:38;6.77;;;1.90;;
15921;SDS011;8060;50.948;3.146;2024-01-30T13:33:06;6.37;;;1.80;;
15921;SDS011;8060;50.948;3.146;2024-01-30T13:35:34;12.13;;;1.57;;
15921;SDS011;8060;50.948;3.146;2024-01-30T13:38:02;8.30;;;2.30;;
15921;SDS011;8060;50.948;3.146;2024-01-30T13:40:30;12.10;;;2.00;;
15921;SDS011;8060;50.948;3.146;2024-01-30T13:43:00;7.10;;;1.67;;
15921;SDS011;8060;50.948;3.146;2024-01-30T13:45:28;7.03;;;1.90;;
15921;SDS011;8060;50.948;3.146;2024-01-30T13:47:56;6.83;;;2.10;;
15921;SDS011;8060;50.948;3.146;2024-01-30T13:50:26;9.03;;;2.23;;
15921;SDS011;8060;50.948;3.146;2024-01-30T13:52:54;8.93;;;2.10;;
15921;SDS011;8060;50.948;3.146;2024-01-30T13:55:24;11.77;;;2.10;;
15921;SDS011;8060;50.948;3.146;2024-01-30T13:57:52;9.53;;;2.17;;
15921;SDS011;8060;50.948;3.146;2024-01-30T14:00:22;9.20;;;2.67;;
15921;SDS011;8060;50.948;3.146;2024-01-30T14:02:51;13.13;;;2.40;;
15921;SDS011;8060;50.948;3.146;2024-01-30T14:05:20;7.80;;;2.20;;
15921;SDS011;8060;50.948;3.146;2024-01-30T14:07:49;15.93;;;3.03;;
15921;SDS011;8060;50.948;3.146;2024-01-30T14:10:18;12.37;;;3.00;;
15921;SDS011;8060;50.948;3.146;2024-01-30T14:12:46;9.57;;;2.97;;
15921;SDS011;8060;50.948;3.146;2024-01-30T14:15:14;11.43;;;3.50;;
15921;SDS011;8060;50.948;3.146;2024-01-30T14:17:55;9.83;;;2.93;;
15921;SDS011;8060;50.948;3.146;2024-01-30T14:20:25;10.07;;;3.43;;
15921;SDS011;8060;50.948;3.146;2024-01-30T14:22:53;10.17;;;3.33;;
15921;SDS011;8060;50.948;3.146;2024-01-30T14:25:22;8.37;;;3.20;;
15921;SDS011;8060;50.948;3.146;2024-01-30T14:27:51;8.77;;;3.70;;
15921;SDS011;8060;50.948;3.146;2024-01-30T14:30:19;8.23;;;3.73;;
15921;SDS011;8060;50.948;3.146;2024-01-30T14:32:47;11.73;;;3.70;;
15921;SDS011;8060;50.948;3.146;2024-01-30T14:35:17;9.60;;;3.40;;
15921;SDS011;8060;50.948;3.146;2024-01-30T14:37:46;11.33;;;5.50;;
15921;SDS011;8060;50.948;3.146;2024-01-30T14:40:14;12.07;;;4.23;;
15921;SDS011;8060;50.948;3.146;2024-01-30T14:42:43;11.97;;;4.10;;
15921;SDS011;8060;50.948;3.146;2024-01-30T14:45:11;9.33;;;3.77;;
15921;SDS011;8060;50.948;3.146;2024-01-30T14:47:39;8.23;;;3.50;;
15921;SDS011;8060;50.948;3.146;2024-01-30T14:50:08;9.83;;;3.57;;
15921;SDS011;8060;50.948;3.146;2024-01-30T14:52:38;10.87;;;3.90;;
15921;SDS011;8060;50.948;3.146;2024-01-30T14:55:07;10.90;;;5.03;;
15921;SDS011;8060;50.948;3.146;2024-01-30T14:57:36;9.53;;;3.30;;